createdAt,value
2023-03-15T00:00:14.733Z,-0.38
2023-03-15T00:01:21.344Z,-0.35
2023-03-15T00:02:23.519Z,-0.31
2023-03-15T00:03:28.193Z,-0.35
2023-03-15T00:04:32.579Z,-0.35
2023-03-15T00:05:37.448Z,-0.31
2023-03-15T00:06:39.546Z,-0.30
2023-03-15T00:07:44.229Z,-0.27
2023-03-15T00:08:47.987Z,-0.35
2023-03-15T00:09:52.903Z,-0.37
2023-03-15T00:10:55.015Z,-0.37
2023-03-15T00:11:59.630Z,-0.40
2023-03-15T00:13:01.728Z,-0.39
2023-03-15T00:14:06.442Z,-0.38
2023-03-15T00:15:14.425Z,-0.35
2023-03-15T00:16:19.252Z,-0.40
2023-03-15T00:17:22.911Z,-0.48
2023-03-15T00:18:27.959Z,-0.42
2023-03-15T00:19:30.623Z,-0.42
2023-03-15T00:20:35.324Z,-0.44
2023-03-15T00:21:37.561Z,-0.44
2023-03-15T00:22:42.182Z,-0.40
2023-03-15T00:23:44.387Z,-0.44
2023-03-15T00:24:49.249Z,-0.40
2023-03-15T00:25:52.798Z,-0.39
2023-03-15T00:26:57.356Z,-0.45
2023-03-15T00:27:59.373Z,-0.49
2023-03-15T00:29:03.958Z,-0.50
2023-03-15T00:30:07.370Z,-0.50
2023-03-15T00:31:17.845Z,-0.58
2023-03-15T00:32:20.080Z,-0.57
2023-03-15T00:33:24.702Z,-0.51
2023-03-15T00:34:26.810Z,-0.50
2023-03-15T00:35:31.597Z,-0.59
2023-03-15T00:36:33.734Z,-0.59
2023-03-15T00:37:38.561Z,-0.69
2023-03-15T00:38:44.163Z,-0.70
2023-03-15T00:39:48.895Z,-0.64
2023-03-15T00:40:50.904Z,-0.61
2023-03-15T00:41:57.022Z,-0.59
2023-03-15T00:42:59.267Z,-0.57
2023-03-15T00:44:04.400Z,-0.53
2023-03-15T00:45:08.239Z,-0.55
2023-03-15T00:46:15.730Z,-0.57
2023-03-15T00:47:17.780Z,-0.64
2023-03-15T00:48:22.647Z,-0.58
2023-03-15T00:49:24.650Z,-0.61
2023-03-15T00:50:29.466Z,-0.61
2023-03-15T00:51:32.026Z,-0.58
2023-03-15T00:52:38.816Z,-0.54
2023-03-15T00:53:45.412Z,-0.56
2023-03-15T00:54:52.271Z,-0.54
2023-03-15T00:55:57.147Z,-0.57
2023-03-15T00:56:59.338Z,-0.57
2023-03-15T00:58:03.969Z,-0.58
2023-03-15T00:59:06.150Z,-0.62
2023-03-15T01:00:14.116Z,-0.59
2023-03-15T01:01:22.263Z,-0.62
2023-03-15T01:02:27.034Z,-0.64
2023-03-15T01:03:29.258Z,-0.63
2023-03-15T01:04:34.683Z,-0.66
2023-03-15T01:05:36.983Z,-0.63
2023-03-15T01:06:42.444Z,-0.65
2023-03-15T01:07:45.688Z,-0.70
2023-03-15T01:08:51.551Z,-0.75
2023-03-15T01:09:53.547Z,-0.77
2023-03-15T01:10:58.121Z,-0.71
2023-03-15T01:12:00.149Z,-0.92
2023-03-15T01:13:04.758Z,-0.88
2023-03-15T01:14:08.936Z,-0.91
2023-03-15T01:15:16.218Z,-0.94
2023-03-15T01:16:21.155Z,-0.89
2023-03-15T01:17:25.814Z,-0.95
2023-03-15T01:18:28.046Z,-0.91
2023-03-15T01:19:32.862Z,-0.94
2023-03-15T01:20:35.056Z,-0.90
2023-03-15T01:21:39.780Z,-0.95
2023-03-15T01:22:41.804Z,-0.96
2023-03-15T01:23:46.483Z,-0.97
2023-03-15T01:24:48.545Z,-1.01
2023-03-15T01:25:53.344Z,-0.96
2023-03-15T01:26:55.343Z,-0.95
2023-03-15T01:27:59.885Z,-0.93
2023-03-15T01:29:01.953Z,-0.99
2023-03-15T01:30:07.233Z,-0.98
2023-03-15T01:31:17.423Z,-1.03
2023-03-15T01:32:27.209Z,-1.07
2023-03-15T01:33:29.434Z,-1.07
2023-03-15T01:34:34.396Z,-1.00
2023-03-15T01:35:36.424Z,-0.97
2023-03-15T01:36:41.244Z,-1.02
2023-03-15T01:37:43.224Z,-1.00
2023-03-15T01:38:49.681Z,-1.04
2023-03-15T01:39:51.877Z,-1.07
2023-03-15T01:40:56.442Z,-1.07
2023-03-15T01:42:01.195Z,-1.06
2023-03-15T01:43:16.052Z,-1.02
2023-03-15T01:44:24.236Z,-1.03
2023-03-15T01:46:04.925Z,-1.08
2023-03-15T01:47:09.744Z,-1.01
2023-03-15T01:48:14.703Z,-1.04
2023-03-15T01:49:25.081Z,-1.07
2023-03-15T01:50:27.256Z,-1.06
2023-03-15T01:51:37.640Z,-1.13
2023-03-15T01:52:45.780Z,-1.08
2023-03-15T01:53:54.397Z,-1.13
2023-03-15T01:55:02.888Z,-1.17
2023-03-15T01:56:06.403Z,-1.13
2023-03-15T01:57:16.081Z,-1.15
2023-03-15T01:58:18.310Z,-1.18
2023-03-15T01:59:26.748Z,-1.18
2023-03-15T02:00:28.887Z,-1.16
2023-03-15T02:01:33.964Z,-1.18
2023-03-15T02:02:36.547Z,-1.22
2023-03-15T02:03:47.642Z,-1.17
2023-03-15T02:04:56.124Z,-1.20
2023-03-15T02:06:03.538Z,-1.22
2023-03-15T02:07:09.838Z,-1.23
2023-03-15T02:08:15.849Z,-1.24
2023-03-15T02:09:22.450Z,-1.20
2023-03-15T02:10:30.961Z,-1.14
2023-03-15T02:11:37.660Z,-1.18
2023-03-15T02:12:45.526Z,-1.22
2023-03-15T02:13:51.854Z,-1.22
2023-03-15T02:14:54.839Z,-1.21
2023-03-15T02:16:00.213Z,-1.21
2023-03-15T02:17:02.481Z,-1.17
2023-03-15T02:18:07.086Z,-1.13
2023-03-15T02:19:25.919Z,-1.10
2023-03-15T02:20:39.499Z,-1.15
2023-03-15T02:21:50.035Z,-1.10
2023-03-15T02:22:57.757Z,-1.06
2023-03-15T02:24:09.809Z,-1.03
2023-03-15T02:25:21.029Z,-1.09
2023-03-15T02:26:30.180Z,-1.16
2023-03-15T02:27:39.788Z,-1.15
2023-03-15T02:28:42.487Z,-1.13
2023-03-15T02:29:47.070Z,-1.16
2023-03-15T02:30:49.548Z,-1.09
2023-03-15T02:31:55.010Z,-1.16
2023-03-15T02:32:58.452Z,-1.15
2023-03-15T02:34:04.139Z,-1.16
2023-03-15T02:35:06.997Z,-1.20
2023-03-15T02:36:20.688Z,-1.20
2023-03-15T02:37:22.856Z,-1.17
2023-03-15T02:38:27.440Z,-1.20
2023-03-15T02:39:29.433Z,-1.17
2023-03-15T02:40:34.427Z,-1.16
2023-03-15T02:41:39.781Z,-1.11
2023-03-15T02:42:48.451Z,-1.14
2023-03-15T02:43:55.721Z,-1.16
2023-03-15T02:45:00.801Z,-1.09
2023-03-15T02:46:04.480Z,-1.18
2023-03-15T02:47:13.184Z,-1.19
2023-03-15T02:48:16.903Z,-1.16
2023-03-15T02:49:24.283Z,-1.12
2023-03-15T02:50:26.255Z,-1.11
2023-03-15T02:51:32.731Z,-1.20
2023-03-15T02:52:34.693Z,-1.17
2023-03-15T02:53:39.273Z,-1.17
2023-03-15T02:54:43.576Z,-1.14
2023-03-15T02:55:48.455Z,-1.15
2023-03-15T02:56:50.409Z,-1.14
2023-03-15T02:57:57.666Z,-1.19
2023-03-15T02:58:59.842Z,-1.12
2023-03-15T03:00:14.585Z,-1.16
2023-03-15T03:01:20.849Z,-1.16
2023-03-15T03:02:23.948Z,-1.14
2023-03-15T03:03:28.590Z,-1.16
2023-03-15T03:04:30.611Z,-1.07
2023-03-15T03:05:35.199Z,-1.12
2023-03-15T03:06:37.406Z,-1.09
2023-03-15T03:07:42.888Z,-1.08
2023-03-15T03:08:47.371Z,-1.09
2023-03-15T03:09:52.073Z,-1.08
2023-03-15T03:10:54.136Z,-1.05
2023-03-15T03:11:58.819Z,-1.04
2023-03-15T03:13:03.409Z,-1.05
2023-03-15T03:14:08.226Z,-0.99
2023-03-15T03:15:11.712Z,-1.09
2023-03-15T03:16:16.345Z,-1.08
2023-03-15T03:17:19.146Z,-1.00
2023-03-15T03:18:23.718Z,-1.07
2023-03-15T03:19:26.040Z,-1.09
2023-03-15T03:20:30.822Z,-1.01
2023-03-15T03:21:32.812Z,-1.02
2023-03-15T03:22:37.460Z,-0.99
2023-03-15T03:23:39.483Z,-1.06
2023-03-15T03:24:46.019Z,-1.06
2023-03-15T03:25:48.109Z,-1.03
2023-03-15T03:26:57.953Z,-0.99
2023-03-15T03:28:04.436Z,-1.07
2023-03-15T03:29:09.062Z,-1.14
2023-03-15T03:30:13.870Z,-1.17
2023-03-15T03:31:21.168Z,-1.15
2023-03-15T03:32:23.264Z,-1.16
2023-03-15T03:33:27.998Z,-1.14
2023-03-15T03:34:30.016Z,-1.08
2023-03-15T03:35:34.756Z,-1.13
2023-03-15T03:36:37.149Z,-1.12
2023-03-15T03:37:41.796Z,-1.16
2023-03-15T03:38:46.259Z,-1.22
2023-03-15T03:39:51.003Z,-1.21
2023-03-15T03:40:52.993Z,-1.17
2023-03-15T03:41:57.610Z,-1.15
2023-03-15T03:43:02.197Z,-1.17
2023-03-15T03:44:07.003Z,-1.16
2023-03-15T03:45:10.310Z,-1.19
2023-03-15T03:46:14.995Z,-1.17
2023-03-15T03:47:17.110Z,-1.21
2023-03-15T03:48:21.686Z,-1.21
2023-03-15T03:49:23.765Z,-1.19
2023-03-15T03:50:28.562Z,-1.22
2023-03-15T03:51:31.044Z,-1.22
2023-03-15T03:52:35.643Z,-1.18
2023-03-15T03:53:37.673Z,-1.19
2023-03-15T03:54:42.772Z,-1.22
2023-03-15T03:55:45.502Z,-1.17
2023-03-15T03:56:50.638Z,-1.20
2023-03-15T03:57:53.092Z,-1.22
2023-03-15T03:59:00.578Z,-1.23
2023-03-15T04:00:02.656Z,-1.21
2023-03-15T04:01:07.651Z,-1.16
2023-03-15T04:02:09.886Z,-1.17
2023-03-15T04:03:14.650Z,-1.18
2023-03-15T04:04:17.011Z,-1.19
2023-03-15T04:05:21.609Z,-1.15
2023-03-15T04:06:23.668Z,-1.17
2023-03-15T04:07:28.318Z,-1.15
2023-03-15T04:08:30.325Z,-1.19
2023-03-15T04:09:37.857Z,-1.19
2023-03-15T04:10:39.941Z,-1.15
2023-03-15T04:11:45.883Z,-1.18
2023-03-15T04:12:47.834Z,-1.11
2023-03-15T04:13:52.440Z,-1.13
2023-03-15T04:14:59.629Z,-1.10
2023-03-15T04:16:03.890Z,-1.09
2023-03-15T04:17:08.844Z,-1.17
2023-03-15T04:18:10.867Z,-1.13
2023-03-15T04:19:15.695Z,-1.14
2023-03-15T04:20:17.819Z,-1.17
2023-03-15T04:21:23.666Z,-1.19
2023-03-15T04:22:25.649Z,-1.19
2023-03-15T04:23:30.206Z,-1.22
2023-03-15T04:24:32.702Z,-1.27
2023-03-15T04:25:37.257Z,-1.21
2023-03-15T04:26:39.315Z,-1.24
2023-03-15T04:27:43.940Z,-1.18
2023-03-15T04:28:45.985Z,-1.21
2023-03-15T04:29:50.764Z,-1.22
2023-03-15T04:31:01.557Z,-1.30
2023-03-15T04:32:06.262Z,-1.33
2023-03-15T04:33:09.448Z,-1.27
2023-03-15T04:34:14.034Z,-1.23
2023-03-15T04:35:16.145Z,-1.26
2023-03-15T04:36:21.149Z,-1.28
2023-03-15T04:37:23.128Z,-1.24
2023-03-15T04:38:28.168Z,-1.29
2023-03-15T04:39:30.414Z,-1.27
2023-03-15T04:40:35.800Z,-1.30
2023-03-15T04:41:39.563Z,-1.31
2023-03-15T04:42:44.212Z,-1.32
2023-03-15T04:43:46.646Z,-1.32
2023-03-15T04:44:51.295Z,-1.29
2023-03-15T04:45:55.893Z,-1.24
2023-03-15T04:47:00.938Z,-1.30
2023-03-15T04:48:03.641Z,-1.27
2023-03-15T04:49:08.268Z,-1.24
2023-03-15T04:50:11.748Z,-1.31
2023-03-15T04:51:16.347Z,-1.27
2023-03-15T04:52:18.322Z,-1.29
2023-03-15T04:53:22.919Z,-1.27
2023-03-15T04:54:25.031Z,-1.28
2023-03-15T04:55:29.704Z,-1.27
2023-03-15T04:56:31.920Z,-1.27
2023-03-15T04:57:36.736Z,-1.25
2023-03-15T04:58:38.701Z,-1.28
2023-03-15T04:59:43.230Z,-1.22
2023-03-15T05:00:45.345Z,-1.24
2023-03-15T05:01:52.562Z,-1.24
2023-03-15T05:02:55.245Z,-1.30
2023-03-15T05:04:00.254Z,-1.35
2023-03-15T05:05:02.243Z,-1.38
2023-03-15T05:06:08.379Z,-1.33
2023-03-15T05:07:10.766Z,-1.36
2023-03-15T05:08:15.381Z,-1.37
2023-03-15T05:09:19.370Z,-1.38
2023-03-15T05:10:24.042Z,-1.38
2023-03-15T05:11:26.589Z,-1.37
2023-03-15T05:12:31.316Z,-1.40
2023-03-15T05:13:33.364Z,-1.44
2023-03-15T05:14:37.973Z,-1.43
2023-03-15T05:15:40.006Z,-1.41
2023-03-15T05:16:44.612Z,-1.50
2023-03-15T05:17:49.179Z,-1.54
2023-03-15T05:18:54.134Z,-1.60
2023-03-15T05:19:56.235Z,-1.60
2023-03-15T05:21:00.831Z,-1.61
2023-03-15T05:22:04.220Z,-1.69
2023-03-15T05:23:08.843Z,-1.77
2023-03-15T05:24:10.800Z,-1.80
2023-03-15T05:25:15.765Z,-1.83
2023-03-15T05:26:17.747Z,-1.88
2023-03-15T05:27:22.649Z,-1.94
2023-03-15T05:28:26.118Z,-2.01
2023-03-15T05:29:30.948Z,-1.94
2023-03-15T05:30:33.083Z,-1.99
2023-03-15T05:31:37.818Z,-2.05
2023-03-15T05:32:39.956Z,-2.12
2023-03-15T05:33:48.145Z,-2.16
2023-03-15T05:34:50.163Z,-2.12
2023-03-15T05:35:56.657Z,-2.18
2023-03-15T05:36:58.717Z,-2.26
2023-03-15T05:38:03.702Z,-2.18
2023-03-15T05:39:05.725Z,-2.23
2023-03-15T05:40:12.408Z,-2.24
2023-03-15T05:41:18.390Z,-2.37
2023-03-15T05:42:26.324Z,-2.36
2023-03-15T05:43:28.358Z,-2.32
2023-03-15T05:44:32.913Z,-2.32
2023-03-15T05:45:34.954Z,-2.37
2023-03-15T05:46:39.874Z,-2.41
2023-03-15T05:47:41.938Z,-2.43
2023-03-15T05:48:49.155Z,-2.47
2023-03-15T05:49:52.485Z,-2.54
2023-03-15T05:50:57.186Z,-2.62
2023-03-15T05:51:59.361Z,-2.62
2023-03-15T05:53:03.939Z,-2.64
2023-03-15T05:54:06.042Z,-2.66
2023-03-15T05:55:11.558Z,-2.59
2023-03-15T05:56:13.732Z,-2.59
2023-03-15T05:57:18.741Z,-2.53
2023-03-15T05:58:20.744Z,-2.58
2023-03-15T05:59:25.442Z,-2.57
2023-03-15T06:00:27.674Z,-2.60
2023-03-15T06:01:32.344Z,-2.70
2023-03-15T06:02:34.346Z,-2.67
2023-03-15T06:03:39.070Z,-2.67
2023-03-15T06:04:44.007Z,-2.64
2023-03-15T06:05:48.713Z,-2.57
2023-03-15T06:06:50.903Z,-2.59
2023-03-15T06:07:55.568Z,-2.55
2023-03-15T06:08:57.620Z,-2.49
2023-03-15T06:10:02.228Z,-2.55
2023-03-15T06:11:04.297Z,-2.54
2023-03-15T06:12:09.428Z,-2.51
2023-03-15T06:13:11.587Z,-2.51
2023-03-15T06:14:16.213Z,-2.49
2023-03-15T06:15:18.679Z,-2.51
2023-03-15T06:16:23.317Z,-2.49
2023-03-15T06:17:25.361Z,-2.50
2023-03-15T06:18:29.967Z,-2.48
2023-03-15T06:19:32.111Z,-2.44
2023-03-15T06:20:39.868Z,-2.44
2023-03-15T06:21:41.909Z,-2.44
2023-03-15T06:22:46.580Z,-2.43
2023-03-15T06:23:48.697Z,-2.41
2023-03-15T06:24:53.389Z,-2.43
2023-03-15T06:25:55.441Z,-2.42
2023-03-15T06:27:00.016Z,-2.45
2023-03-15T06:28:02.255Z,-2.39
2023-03-15T06:29:06.948Z,-2.41
2023-03-15T06:30:10.173Z,-2.42
2023-03-15T06:31:16.600Z,-2.37
2023-03-15T06:32:18.612Z,-2.37
2023-03-15T06:33:24.475Z,-2.36
2023-03-15T06:34:26.502Z,-2.36
2023-03-15T06:35:31.174Z,-2.32
2023-03-15T06:36:37.118Z,-2.31
2023-03-15T06:37:41.966Z,-2.31
2023-03-15T06:38:44.072Z,-2.28
2023-03-15T06:39:48.751Z,-2.18
2023-03-15T06:40:50.764Z,-2.15
2023-03-15T06:41:58.623Z,-2.15
2023-03-15T06:43:05.999Z,-2.16
2023-03-15T06:44:11.066Z,-2.12
2023-03-15T06:45:13.243Z,-2.08
2023-03-15T06:46:17.984Z,-2.10
2023-03-15T06:47:20.082Z,-2.08
2023-03-15T06:48:24.826Z,-2.07
2023-03-15T06:49:26.861Z,-2.05
2023-03-15T06:50:40.647Z,-1.97
2023-03-15T06:51:53.584Z,-1.97
2023-03-15T06:52:56.987Z,-1.97
2023-03-15T06:54:01.723Z,-1.97
2023-03-15T06:55:04.556Z,-1.93
2023-03-15T06:56:10.029Z,-1.88
2023-03-15T06:57:12.376Z,-1.87
2023-03-15T06:58:18.031Z,-1.86
2023-03-15T06:59:19.992Z,-1.87
2023-03-15T07:00:25.112Z,-1.83
2023-03-15T07:01:27.192Z,-1.83
2023-03-15T07:02:37.743Z,-1.82
2023-03-15T07:03:42.485Z,-1.78
2023-03-15T07:04:45.378Z,-1.77
2023-03-15T07:05:52.684Z,-1.77
2023-03-15T07:06:59.938Z,-1.74
2023-03-15T07:08:01.955Z,-1.72
2023-03-15T07:09:07.593Z,-1.71
2023-03-15T07:10:11.322Z,-1.70
2023-03-15T07:11:16.367Z,-1.69
2023-03-15T07:12:18.363Z,-1.69
2023-03-15T07:13:22.967Z,-1.69
2023-03-15T07:14:25.111Z,-1.66
2023-03-15T07:15:29.991Z,-1.66
2023-03-15T07:16:32.010Z,-1.62
2023-03-15T07:17:36.612Z,-1.63
2023-03-15T07:18:41.380Z,-1.62
2023-03-15T07:19:55.509Z,-1.59
2023-03-15T07:21:01.662Z,-1.62
2023-03-15T07:22:06.598Z,-1.51
2023-03-15T07:23:11.189Z,-1.48
2023-03-15T07:24:13.283Z,-1.48
2023-03-15T07:25:23.885Z,-1.41
2023-03-15T07:26:25.989Z,-1.38
2023-03-15T07:27:30.708Z,-1.40
2023-03-15T07:28:32.691Z,-1.40
2023-03-15T07:29:37.301Z,-1.32
2023-03-15T07:30:39.360Z,-1.25
2023-03-15T07:31:43.995Z,-1.25
2023-03-15T07:32:46.757Z,-1.22
2023-03-15T07:33:51.684Z,-1.19
2023-03-15T07:34:58.356Z,-1.23
2023-03-15T07:36:04.369Z,-1.21
2023-03-15T07:37:09.270Z,-1.17
2023-03-15T07:38:14.014Z,-1.15
2023-03-15T07:39:16.406Z,-1.08
2023-03-15T07:40:21.354Z,-1.06
2023-03-15T07:41:25.986Z,-1.06
2023-03-15T07:42:28.001Z,-1.00
2023-03-15T07:43:32.650Z,-0.92
2023-03-15T07:44:34.681Z,-0.90
2023-03-15T07:45:39.352Z,-0.90
2023-03-15T07:46:44.049Z,-0.95
2023-03-15T07:47:46.086Z,-0.95
2023-03-15T07:48:50.723Z,-0.93
2023-03-15T07:49:52.762Z,-0.86
2023-03-15T07:50:57.592Z,-0.89
2023-03-15T07:51:59.663Z,-0.82
2023-03-15T07:53:07.358Z,-0.86
2023-03-15T07:54:09.653Z,-0.82
2023-03-15T07:55:14.265Z,-0.83
2023-03-15T07:56:16.514Z,-0.83
2023-03-15T07:57:21.246Z,-0.82
2023-03-15T07:58:23.546Z,-0.77
2023-03-15T07:59:28.185Z,-0.74
2023-03-15T08:00:30.613Z,-0.64
2023-03-15T08:01:35.307Z,-0.54
2023-03-15T08:02:37.449Z,-0.47
2023-03-15T08:03:42.227Z,-0.44
2023-03-15T08:04:44.902Z,-0.35
2023-03-15T08:05:49.493Z,-0.43
2023-03-15T08:06:51.499Z,-0.44
2023-03-15T08:07:56.749Z,-0.33
2023-03-15T08:09:04.101Z,-0.33
2023-03-15T08:10:09.899Z,-0.27
2023-03-15T08:11:14.464Z,-0.28
2023-03-15T08:12:16.491Z,-0.21
2023-03-15T08:13:21.354Z,-0.16
2023-03-15T08:14:25.971Z,-0.09
2023-03-15T08:15:31.208Z,0.04
2023-03-15T08:16:33.350Z,0.04
2023-03-15T08:17:37.984Z,0.12
2023-03-15T08:18:40.102Z,0.25
2023-03-15T08:19:44.912Z,0.22
2023-03-15T08:20:46.950Z,0.22
2023-03-15T08:21:54.024Z,0.33
2023-03-15T08:22:56.249Z,0.37
2023-03-15T08:24:03.823Z,0.50
2023-03-15T08:25:07.578Z,0.72
2023-03-15T08:26:12.137Z,0.80
2023-03-15T08:27:14.327Z,1.10
2023-03-15T08:28:19.066Z,1.28
2023-03-15T08:29:23.745Z,1.37
2023-03-15T08:30:28.425Z,1.26
2023-03-15T08:31:33.146Z,1.48
2023-03-15T08:32:35.244Z,1.67
2023-03-15T08:33:39.963Z,1.96
2023-03-15T08:34:42.452Z,2.27
2023-03-15T08:35:47.066Z,2.27
2023-03-15T08:36:49.622Z,2.54
2023-03-15T08:37:54.407Z,2.10
2023-03-15T08:38:56.375Z,2.26
2023-03-15T08:40:09.489Z,2.46
2023-03-15T08:41:14.071Z,2.69
2023-03-15T08:42:16.073Z,2.90
2023-03-15T08:43:20.890Z,2.93
2023-03-15T08:44:22.985Z,2.90
2023-03-15T08:45:28.710Z,3.26
2023-03-15T08:46:33.460Z,3.45
2023-03-15T08:47:36.368Z,3.69
2023-03-15T08:48:41.203Z,3.40
2023-03-15T08:49:43.216Z,3.44
2023-03-15T08:50:47.917Z,3.56
2023-03-15T08:51:52.559Z,3.71
2023-03-15T08:52:54.835Z,4.16
2023-03-15T08:53:59.676Z,3.82
2023-03-15T08:55:05.300Z,3.81
2023-03-15T08:56:10.372Z,3.32
2023-03-15T08:57:12.922Z,3.26
2023-03-15T08:58:17.559Z,3.35
2023-03-15T08:59:31.335Z,3.27
2023-03-15T09:00:37.737Z,2.96
2023-03-15T09:01:44.954Z,3.33
2023-03-15T09:02:52.188Z,3.51
2023-03-15T09:03:54.348Z,3.00
2023-03-15T09:04:59.125Z,3.29
2023-03-15T09:06:03.809Z,3.21
2023-03-15T09:07:06.228Z,3.66
2023-03-15T09:08:10.961Z,3.94
2023-03-15T09:09:17.610Z,4.08
2023-03-15T09:10:25.448Z,4.22
2023-03-15T09:11:27.453Z,4.00
2023-03-15T09:12:31.988Z,3.95
2023-03-15T09:13:34.069Z,3.53
2023-03-15T09:14:38.950Z,3.95
2023-03-15T09:15:43.739Z,3.92
2023-03-15T09:16:45.813Z,3.35
2023-03-15T09:17:52.040Z,2.82
2023-03-15T09:18:56.799Z,2.47
2023-03-15T09:20:01.581Z,2.27
2023-03-15T09:21:08.093Z,2.40
2023-03-15T09:22:17.187Z,2.89
2023-03-15T09:23:28.305Z,3.32
2023-03-15T09:24:30.701Z,3.57
2023-03-15T09:25:38.084Z,4.21
2023-03-15T09:26:40.118Z,3.97
2023-03-15T09:27:44.947Z,4.04
2023-03-15T09:28:49.566Z,3.94
2023-03-15T09:29:51.533Z,4.19
2023-03-15T09:30:58.219Z,4.46
2023-03-15T09:32:02.231Z,4.32
2023-03-15T09:33:07.658Z,4.97
2023-03-15T09:34:10.526Z,5.26
2023-03-15T09:35:17.431Z,6.15
2023-03-15T09:36:22.061Z,6.25
2023-03-15T09:37:24.091Z,6.50
2023-03-15T09:38:29.031Z,5.77
2023-03-15T09:39:33.549Z,6.44
2023-03-15T09:40:45.162Z,6.13
2023-03-15T09:41:49.367Z,6.36
2023-03-15T09:43:02.575Z,4.77
2023-03-15T09:44:16.629Z,5.07
2023-03-15T09:45:28.223Z,4.90
2023-03-15T09:46:33.784Z,5.24
2023-03-15T09:47:48.381Z,6.02
2023-03-15T09:48:57.231Z,5.80
2023-03-15T09:50:07.555Z,5.86
2023-03-15T09:51:17.971Z,5.77
2023-03-15T09:52:30.909Z,5.91
2023-03-15T09:53:41.336Z,6.04
2023-03-15T09:54:51.688Z,6.31
2023-03-15T09:55:58.884Z,6.22
2023-03-15T09:57:03.761Z,5.53
2023-03-15T09:58:15.211Z,5.28
2023-03-15T09:59:22.785Z,5.78
2023-03-15T10:00:36.655Z,5.80
2023-03-15T10:01:45.432Z,5.88
2023-03-15T10:02:56.019Z,5.67
2023-03-15T10:04:00.692Z,5.70
2023-03-15T10:05:10.106Z,6.42
2023-03-15T10:06:20.784Z,6.52
2023-03-15T10:07:22.885Z,6.42
2023-03-15T10:08:28.063Z,6.67
2023-03-15T10:09:35.932Z,6.07
2023-03-15T10:10:45.024Z,6.41
2023-03-15T10:12:02.012Z,5.39
2023-03-15T10:13:21.546Z,5.26
2023-03-15T10:14:39.459Z,5.43
2023-03-15T10:15:57.803Z,5.43
2023-03-15T10:17:04.241Z,5.55
2023-03-15T10:18:28.137Z,5.43
2023-03-15T10:19:45.917Z,5.16
2023-03-15T10:20:59.276Z,4.95
2023-03-15T10:22:10.054Z,5.20
2023-03-15T10:23:19.530Z,5.59
2023-03-15T10:24:29.159Z,6.12
2023-03-15T10:25:32.944Z,6.56
2023-03-15T10:28:17.112Z,5.39
2023-03-15T10:29:26.646Z,5.57
2023-03-15T10:30:31.031Z,5.58
2023-03-15T10:31:44.774Z,5.87
2023-03-15T10:32:55.374Z,5.71
2023-03-15T10:34:00.460Z,5.73
2023-03-15T10:35:05.225Z,5.25
2023-03-15T10:36:19.034Z,4.67
2023-03-15T10:37:23.996Z,4.69
2023-03-15T10:38:29.744Z,4.90
2023-03-15T10:39:31.953Z,4.84
2023-03-15T10:40:44.463Z,4.78
2023-03-15T10:41:51.814Z,4.43
2023-03-15T10:42:54.234Z,4.33
2023-03-15T10:44:08.020Z,4.14
2023-03-15T10:45:20.088Z,3.77
2023-03-15T10:46:26.293Z,3.53
2023-03-15T10:47:28.610Z,3.52
2023-03-15T10:48:34.649Z,3.44
2023-03-15T10:49:39.106Z,3.50
2023-03-15T10:50:43.698Z,3.50
2023-03-15T10:51:50.559Z,3.79
2023-03-15T10:52:58.425Z,3.76
2023-03-15T10:54:07.459Z,4.14
2023-03-15T10:55:17.179Z,4.43
2023-03-15T10:56:25.907Z,4.28
2023-03-15T10:57:36.217Z,4.62
2023-03-15T10:59:05.370Z,4.98
2023-03-15T11:00:34.462Z,5.22
2023-03-15T11:01:36.537Z,5.14
2023-03-15T11:02:42.661Z,5.19
2023-03-15T11:03:44.851Z,5.04
2023-03-15T11:04:52.663Z,5.19
2023-03-15T11:05:57.108Z,5.60
2023-03-15T11:07:04.866Z,5.69
2023-03-15T11:08:12.582Z,5.35
2023-03-15T11:09:20.343Z,5.61
2023-03-15T11:10:23.457Z,5.60
2023-03-15T11:11:28.205Z,4.98
2023-03-15T11:12:34.962Z,5.28
2023-03-15T11:13:41.368Z,5.50
2023-03-15T11:14:46.620Z,5.25
2023-03-15T11:16:01.543Z,5.54
2023-03-15T11:17:09.369Z,5.14
2023-03-15T11:18:18.682Z,4.99
2023-03-15T11:19:26.673Z,5.44
2023-03-15T11:20:31.632Z,5.79
2023-03-15T11:21:38.337Z,6.11
2023-03-15T11:22:42.976Z,6.40
2023-03-15T11:23:50.970Z,6.37
2023-03-15T11:24:54.742Z,6.28
2023-03-15T11:25:59.555Z,5.94
2023-03-15T11:27:03.413Z,5.93
2023-03-15T11:28:08.494Z,5.84
2023-03-15T11:29:17.672Z,5.74
2023-03-15T11:30:27.784Z,6.05
2023-03-15T11:31:35.237Z,5.68
2023-03-15T11:32:40.957Z,5.92
2023-03-15T11:33:54.664Z,5.56
2023-03-15T11:35:05.521Z,5.35
2023-03-15T11:36:13.694Z,5.56
2023-03-15T11:37:24.201Z,4.95
2023-03-15T11:38:33.595Z,5.00
2023-03-15T11:39:45.469Z,4.96
2023-03-15T11:40:56.815Z,4.80
2023-03-15T11:42:11.007Z,4.63
2023-03-15T11:43:21.418Z,4.63
2023-03-15T11:44:30.407Z,4.11
2023-03-15T11:45:41.901Z,3.79
2023-03-15T11:46:50.800Z,3.90
2023-03-15T11:47:59.476Z,3.93
2023-03-15T11:49:10.284Z,3.90
2023-03-15T11:50:17.041Z,3.91
2023-03-15T11:51:21.892Z,4.11
2023-03-15T11:52:29.309Z,4.04
2023-03-15T11:53:35.817Z,4.04
2023-03-15T11:54:40.642Z,3.83
2023-03-15T11:55:53.727Z,3.97
2023-03-15T11:56:57.898Z,4.09
2023-03-15T11:58:33.813Z,3.42
2023-03-15T11:59:42.230Z,3.51
2023-03-15T12:00:57.712Z,3.63
2023-03-15T12:02:52.002Z,3.62
2023-03-15T12:04:40.825Z,3.32
2023-03-15T12:05:45.612Z,3.38
2023-03-15T12:06:53.364Z,3.22
2023-03-15T12:08:03.197Z,2.73
2023-03-15T12:09:37.727Z,2.78
2023-03-15T12:10:49.923Z,2.91
2023-03-15T12:11:52.745Z,3.01
2023-03-15T12:13:01.753Z,2.95
2023-03-15T12:14:06.695Z,3.12
2023-03-15T12:15:46.989Z,3.46
2023-03-15T12:16:51.959Z,3.44
2023-03-15T12:17:56.393Z,3.42
2023-03-15T12:19:02.506Z,3.43
2023-03-15T12:20:18.303Z,3.29
2023-03-15T12:21:26.265Z,3.29
2023-03-15T12:22:33.359Z,3.05
2023-03-15T12:23:44.656Z,3.21
2023-03-15T12:24:51.107Z,3.13
2023-03-15T12:25:56.333Z,3.36
2023-03-15T12:27:06.157Z,3.20
2023-03-15T12:28:10.955Z,3.36
2023-03-15T12:29:19.799Z,3.38
2023-03-15T12:30:30.161Z,3.34
2023-03-15T12:31:54.971Z,3.33
2023-03-15T12:33:00.450Z,3.38
2023-03-15T12:34:05.806Z,3.47
2023-03-15T12:35:20.260Z,3.55
2023-03-15T12:36:37.703Z,3.50
2023-03-15T12:37:48.134Z,3.36
2023-03-15T12:39:01.600Z,3.35
2023-03-15T12:40:41.677Z,3.42
2023-03-15T12:41:49.419Z,3.31
2023-03-15T12:43:15.129Z,3.32
2023-03-15T12:44:41.066Z,3.52
2023-03-15T12:45:45.735Z,3.60
2023-03-15T12:46:58.800Z,3.46
2023-03-15T12:48:22.391Z,3.50
2023-03-15T12:49:39.846Z,3.32
2023-03-15T12:50:53.063Z,3.44
2023-03-15T12:52:00.453Z,3.09
2023-03-15T12:53:05.045Z,2.91
2023-03-15T12:54:16.960Z,2.51
2023-03-15T12:55:19.318Z,2.72
2023-03-15T12:56:36.655Z,2.91
2023-03-15T12:57:47.974Z,3.08
2023-03-15T12:58:54.423Z,3.20
2023-03-15T13:00:01.972Z,3.44
2023-03-15T13:01:10.360Z,3.35
2023-03-15T13:02:43.945Z,3.02
2023-03-15T13:03:46.461Z,3.21
2023-03-15T13:04:51.292Z,2.90
2023-03-15T13:06:05.980Z,2.85
2023-03-15T13:07:23.808Z,2.95
2023-03-15T13:08:33.171Z,3.19
2023-03-15T13:09:53.929Z,3.47
2023-03-15T13:11:20.810Z,3.40
2023-03-15T13:12:33.732Z,3.02
2023-03-15T13:13:54.320Z,2.97
2023-03-15T13:15:04.986Z,2.75
2023-03-15T13:16:20.150Z,2.77
2023-03-15T13:17:37.994Z,2.69
2023-03-15T13:18:52.926Z,2.84
2023-03-15T13:20:06.097Z,2.50
2023-03-15T13:21:18.436Z,2.37
2023-03-15T13:22:29.680Z,2.11
2023-03-15T13:23:35.830Z,1.96
2023-03-15T13:24:48.470Z,2.07
2023-03-15T13:26:03.981Z,2.25
2023-03-15T13:27:19.328Z,2.19
2023-03-15T13:28:27.666Z,2.23
2023-03-15T13:29:34.435Z,2.27
2023-03-15T13:30:42.000Z,2.23
2023-03-15T13:31:45.278Z,1.89
2023-03-15T13:32:50.292Z,1.90
2023-03-15T13:33:57.627Z,2.04
2023-03-15T13:35:02.301Z,2.10
2023-03-15T13:36:10.847Z,2.12
2023-03-15T13:37:18.480Z,2.14
2023-03-15T13:38:27.842Z,2.14
2023-03-15T13:39:34.647Z,2.11
2023-03-15T13:40:46.321Z,2.14
2023-03-15T13:41:50.690Z,2.20
2023-03-15T13:42:52.918Z,2.15
2023-03-15T13:44:05.150Z,1.98
2023-03-15T13:45:17.168Z,1.76
2023-03-15T13:46:22.964Z,1.72
2023-03-15T13:47:29.317Z,1.43
2023-03-15T13:48:36.532Z,1.24
2023-03-15T13:49:41.072Z,1.35
2023-03-15T13:50:48.863Z,1.42
2023-03-15T13:51:56.038Z,1.23
2023-03-15T13:52:58.604Z,1.15
2023-03-15T13:54:07.759Z,1.30
2023-03-15T13:55:16.285Z,1.26
2023-03-15T13:56:21.706Z,1.29
2023-03-15T13:57:27.245Z,1.31
2023-03-15T13:58:29.860Z,1.18
2023-03-15T13:59:42.929Z,1.36
2023-03-15T14:00:45.374Z,1.62
2023-03-15T14:01:54.165Z,1.91
2023-03-15T14:03:01.625Z,2.21
2023-03-15T14:04:07.691Z,2.58
2023-03-15T14:05:15.455Z,3.05
2023-03-15T14:06:26.545Z,3.88
2023-03-15T14:07:35.841Z,4.76
2023-03-15T14:08:39.166Z,5.24
2023-03-15T14:09:43.822Z,5.73
2023-03-15T14:10:58.271Z,6.29
2023-03-15T14:12:04.848Z,7.67
2023-03-15T14:13:21.801Z,9.18
2023-03-15T14:14:28.671Z,9.88
2023-03-15T14:15:45.007Z,10.39
2023-03-15T14:17:04.157Z,9.83
2023-03-15T14:18:20.666Z,10.87
2023-03-15T14:19:25.755Z,10.15
2023-03-15T14:20:34.102Z,10.90
2023-03-15T14:21:37.794Z,10.47
2023-03-15T14:22:44.564Z,9.54
2023-03-15T14:23:51.065Z,8.41
2023-03-15T14:24:53.258Z,7.42
2023-03-15T14:25:59.741Z,7.93
2023-03-15T14:27:09.593Z,7.55